Time;durP1;ratioP1;P1;durP2;ratioP2;P2;SDS_P1;SDS_P2;PMS_P1;PMS_P2;Temp;Humidity;BMP_temperature;BMP_pressure;BME280_temperature;BME280_humidity;BME280_pressure;Samples;Min_cycle;Max_cycle;Signal;HPM_P1;HPM_P2
2023/09/30 00:00:57;;;;;;;4.15;2.72;;;24.00;56.50;;;;;;4999806;28;20036;-64
2023/09/30 00:03:23;;;;;;;4.30;2.58;;;24.00;56.60;;;;;;4999679;28;20037;-63
2023/09/30 00:05:48;;;;;;;4.40;2.50;;;24.00;56.60;;;;;;5001779;28;20475;-64
2023/09/30 00:08:14;;;;;;;4.10;2.50;;;23.90;56.50;;;;;;4997483;28;20912;-64
2023/09/30 00:10:40;;;;;;;4.82;2.80;;;23.90;56.50;;;;;;5001775;28;20030;-63
2023/09/30 00:13:08;;;;;;;4.45;2.80;;;23.90;56.40;;;;;;4999107;28;20449;-63
2023/09/30 00:15:34;;;;;;;4.18;2.47;;;23.90;56.50;;;;;;4999635;28;20052;-64
2023/09/30 00:18:01;;;;;;;4.32;2.63;;;23.90;56.50;;;;;;4998484;28;20030;-63
2023/09/30 00:20:27;;;;;;;5.72;2.88;;;23.90;56.40;;;;;;4998011;28;20501;-63
2023/09/30 00:22:53;;;;;;;4.90;2.95;;;23.90;56.40;;;;;;4999345;28;20043;-62
2023/09/30 00:25:20;;;;;;;4.57;2.88;;;23.90;56.40;;;;;;4996598;28;20039;-63
2023/09/30 00:27:46;;;;;;;4.18;2.60;;;23.90;56.40;;;;;;4998109;28;20030;-65
2023/09/30 00:30:12;;;;;;;3.95;2.38;;;23.90;56.90;;;;;;5000613;28;20367;-66
2023/09/30 00:32:39;;;;;;;4.90;2.80;;;23.90;56.40;;;;;;4998992;28;20995;-66
2023/09/30 00:35:09;;;;;;;4.90;2.70;;;23.90;56.40;;;;;;4998886;28;20030;-65
2023/09/30 00:37:34;;;;;;;4.45;2.80;;;23.90;56.40;;;;;;4999208;28;20029;-66
2023/09/30 00:40:00;;;;;;;4.65;2.65;;;23.90;56.40;;;;;;4998645;28;20042;-65
2023/09/30 00:42:26;;;;;;;4.38;2.65;;;23.80;56.30;;;;;;5000571;28;20129;-66
2023/09/30 00:44:52;;;;;;;4.60;2.75;;;23.90;56.30;;;;;;4999593;28;20057;-66
2023/09/30 00:47:20;;;;;;;4.93;2.80;;;23.90;56.30;;;;;;4997105;28;20061;-66
2023/09/30 00:49:45;;;;;;;4.85;2.78;;;23.80;56.30;;;;;;5000812;28;20103;-66
2023/09/30 00:52:12;;;;;;;4.43;2.83;;;23.80;56.30;;;;;;4998029;28;20065;-66
2023/09/30 00:54:39;;;;;;;4.65;2.80;;;23.80;56.30;;;;;;4997491;28;20038;-66
2023/09/30 00:57:05;;;;;;;4.63;2.72;;;23.80;56.30;;;;;;5000664;28;20473;-64
2023/09/30 00:59:32;;;;;;;3.88;2.55;;;23.80;56.20;;;;;;5000368;28;20034;-63
2023/09/30 01:02:01;;;;;;;3.80;2.63;;;23.80;56.30;;;;;;4999491;28;20030;-64
2023/09/30 01:04:27;;;;;;;3.80;2.33;;;23.80;56.20;;;;;;4999048;28;20025;-64
2023/09/30 01:06:53;;;;;;;4.43;2.65;;;23.80;56.20;;;;;;4998099;28;20504;-63
2023/09/30 01:09:20;;;;;;;4.93;2.72;;;23.80;56.20;;;;;;4996810;28;20113;-62
2023/09/30 01:11:45;;;;;;;4.47;2.90;;;23.80;56.20;;;;;;4999238;28;20046;-63
2023/09/30 01:14:27;;;;;;;5.03;3.00;;;23.80;56.20;;;;;;5000222;28;20088;-63
2023/09/30 01:16:53;;;;;;;4.85;2.90;;;23.80;56.20;;;;;;4998168;28;20498;-63
2023/09/30 01:19:19;;;;;;;5.05;2.97;;;23.80;56.20;;;;;;4999135;28;20441;-63
2023/09/30 01:22:00;;;;;;;4.32;2.63;;;23.80;56.10;;;;;;4999154;28;20112;-63
2023/09/30 01:24:29;;;;;;;4.72;2.88;;;23.80;56.10;;;;;;4998922;28;20111;-63
2023/09/30 01:26:55;;;;;;;;;;;23.80;56.10;;;;;;5013912;28;20035;-63
2023/09/30 01:29:22;;;;;;;4.22;2.53;;;23.80;56.10;;;;;;4999530;28;19909;-63
2023/09/30 01:31:48;;;;;;;4.22;2.50;;;23.70;56.10;;;;;;5014551;28;20699;-63
2023/09/30 01:34:15;;;;;;;4.88;2.80;;;23.70;56.20;;;;;;5001678;28;20052;-62
2023/09/30 01:36:42;;;;;;;4.47;2.47;;;23.70;56.10;;;;;;4999135;28;20492;-66
2023/09/30 01:39:08;;;;;;;4.63;2.70;;;23.80;56.10;;;;;;4998359;28;20155;-66
2023/09/30 01:41:33;;;;;;;4.70;2.63;;;23.70;56.10;;;;;;4999985;28;20468;-66
2023/09/30 01:43:59;;;;;;;5.15;2.83;;;23.70;56.10;;;;;;4998278;28;20033;-66
2023/09/30 01:46:24;;;;;;;4.90;2.88;;;23.70;56.00;;;;;;4999608;28;20030;-65
2023/09/30 01:48:50;;;;;;;4.82;3.05;;;23.70;56.00;;;;;;4999705;28;20665;-65
2023/09/30 01:51:15;;;;;;;4.43;2.88;;;23.70;56.00;;;;;;4997692;28;20034;-66
2023/09/30 01:53:42;;;;;;;4.80;2.90;;;23.70;56.10;;;;;;5001655;28;20536;-66
2023/09/30 01:56:08;;;;;;;4.18;2.65;;;23.70;56.10;;;;;;5002774;28;20033;-65
2023/09/30 01:58:33;;;;;;;3.92;2.40;;;23.70;56.00;;;;;;5002081;28;20445;-65
2023/09/30 02:01:03;;;;;;;4.38;2.58;;;23.70;56.00;;;;;;5003153;28;20038;-65
2023/09/30 02:03:29;;;;;;;4.30;2.75;;;23.70;56.00;;;;;;5003283;28;20442;-66
2023/09/30 02:05:56;;;;;;;4.63;2.63;;;23.70;56.00;;;;;;5000123;28;20057;-65
2023/09/30 02:08:22;;;;;;;4.68;2.78;;;23.70;56.00;;;;;;5004382;28;20549;-63
2023/09/30 02:10:48;;;;;;;4.38;2.60;;;23.70;56.00;;;;;;5003228;28;20125;-64
2023/09/30 02:13:13;;;;;;;4.47;2.78;;;23.70;56.00;;;;;;5016595;28;20029;-63
2023/09/30 02:15:42;;;;;;;4.97;2.58;;;23.70;56.00;;;;;;5002203;28;20425;-64
2023/09/30 02:18:09;;;;;;;4.47;2.50;;;23.70;56.00;;;;;;5001986;28;20074;-63
2023/09/30 02:20:36;;;;;;;4.40;2.72;;;23.70;56.00;;;;;;5001699;28;20500;-63
2023/09/30 02:23:02;;;;;;;5.05;2.90;;;23.70;56.00;;;;;;5001621;28;20040;-63
2023/09/30 02:25:28;;;;;;;4.47;2.53;;;23.70;56.00;;;;;;4999071;28;20502;-63
2023/09/30 02:27:54;;;;;;;4.22;2.53;;;23.60;56.00;;;;;;5001829;28;20466;-64
2023/09/30 02:30:20;;;;;;;5.07;2.80;;;23.70;56.00;;;;;;5001477;28;20056;-64
2023/09/30 02:32:46;;;;;;;4.45;2.75;;;23.60;56.00;;;;;;5001424;28;20018;-64
2023/09/30 02:35:13;;;;;;;4.85;2.88;;;23.70;56.00;;;;;;5002744;28;20066;-64
2023/09/30 02:37:40;;;;;;;4.53;2.50;;;23.60;56.00;;;;;;5001450;28;20113;-64
2023/09/30 02:40:10;;;;;;;5.25;3.10;;;23.60;56.00;;;;;;4999831;28;20029;-64
2023/09/30 02:42:40;;;;;;;5.25;2.80;;;23.60;56.00;;;;;;5000960;28;20481;-64
2023/09/30 02:45:06;;;;;;;;;;;23.60;56.00;;;;;;5002260;28;20114;-63
2023/09/30 02:47:32;;;;;;;5.20;2.70;;;23.60;56.00;;;;;;5000250;28;19953;-63
2023/09/30 02:49:58;;;;;;;4.68;2.42;;;23.60;55.90;;;;;;5001175;28;20081;-64
2023/09/30 02:52:24;;;;;;;5.05;2.80;;;23.60;55.90;;;;;;5000109;28;20053;-62
2023/09/30 02:54:51;;;;;;;4.43;2.60;;;23.60;55.90;;;;;;4998941;28;20073;-63
2023/09/30 02:57:17;;;;;;;5.28;2.65;;;23.60;55.90;;;;;;5002584;28;20125;-63
2023/09/30 02:59:44;;;;;;;5.13;2.90;;;23.60;55.90;;;;;;5001120;28;20502;-64
2023/09/30 03:02:11;;;;;;;4.75;2.70;;;23.60;55.90;;;;;;5002929;28;20402;-63
2023/09/30 03:04:37;;;;;;;5.07;2.63;;;23.60;55.90;;;;;;5000076;28;20022;-63
2023/09/30 03:07:02;;;;;;;5.13;2.90;;;23.60;55.90;;;;;;4999056;28;20104;-63
2023/09/30 03:09:28;;;;;;;4.53;2.50;;;23.60;55.90;;;;;;4999906;28;20037;-63
2023/09/30 03:11:56;;;;;;;4.22;2.55;;;23.60;55.90;;;;;;5001513;28;20454;-63
2023/09/30 03:14:22;;;;;;;4.32;2.30;;;23.60;55.90;;;;;;5000308;28;20034;-63
2023/09/30 03:16:49;;;;;;;4.68;2.75;;;23.50;55.80;;;;;;5002704;28;20500;-64
2023/09/30 03:19:16;;;;;;;4.20;2.55;;;23.50;55.90;;;;;;5000778;28;20036;-64
2023/09/30 03:21:42;;;;;;;4.63;2.67;;;23.50;55.90;;;;;;5001033;28;20022;-64
2023/09/30 03:24:08;;;;;;;4.72;2.80;;;23.50;55.90;;;;;;4999618;28;20032;-64
2023/09/30 03:26:34;;;;;;;5.00;2.67;;;23.50;55.90;;;;;;5000427;28;20040;-63
2023/09/30 03:29:00;;;;;;;5.10;2.65;;;23.50;55.90;;;;;;5001229;28;20105;-64
2023/09/30 03:31:26;;;;;;;5.00;3.03;;;23.50;56.00;;;;;;4999401;28;20566;-64
2023/09/30 03:33:53;;;;;;;5.15;2.70;;;23.50;55.90;;;;;;5000386;28;20032;-64
2023/09/30 03:36:24;;;;;;;4.95;2.95;;;23.50;55.90;;;;;;5001696;28;20030;-64
2023/09/30 03:38:50;;;;;;;4.25;2.58;;;23.50;55.90;;;;;;5000417;28;20030;-64
2023/09/30 03:41:16;;;;;;;4.80;2.63;;;23.50;56.00;;;;;;5000341;28;20085;-64
2023/09/30 03:43:41;;;;;;;4.63;2.72;;;23.50;56.00;;;;;;4998896;28;20038;-64
2023/09/30 03:46:08;;;;;;;4.63;3.03;;;23.50;55.90;;;;;;4999850;28;20026;-64
2023/09/30 03:48:39;;;;;;;4.38;2.42;;;23.50;56.00;;;;;;4999937;28;20030;-64
2023/09/30 03:51:14;;;;;;;4.22;2.60;;;23.50;56.00;;;;;;5002106;28;20034;-63
2023/09/30 03:53:45;;;;;;;5.00;2.72;;;23.40;55.90;;;;;;5000121;28;20065;-63
2023/09/30 03:56:12;;;;;;;3.95;2.35;;;23.50;56.00;;;;;;4997546;28;20045;-64
2023/09/30 03:58:41;;;;;;;4.78;2.90;;;23.50;56.00;;;;;;5000697;28;20030;-62
2023/09/30 04:01:11;;;;;;;3.85;2.40;;;23.50;56.00;;;;;;4997555;28;20149;-64
2023/09/30 04:03:40;;;;;;;4.97;3.00;;;23.40;56.00;;;;;;5000387;28;20080;-64
2023/09/30 04:06:08;;;;;;;4.70;2.75;;;23.50;56.00;;;;;;5000692;28;20038;-63
2023/09/30 04:08:35;;;;;;;4.38;2.88;;;23.40;56.00;;;;;;5000633;28;20156;-64
2023/09/30 04:11:02;;;;;;;3.65;2.30;;;23.40;56.00;;;;;;4999682;28;20462;-64
2023/09/30 04:13:29;;;;;;;4.63;2.65;;;23.40;56.50;;;;;;4998975;28;20394;-65
2023/09/30 04:15:55;;;;;;;4.65;2.70;;;23.40;56.00;;;;;;5000051;28;20017;-65
2023/09/30 04:18:22;;;;;;;4.47;2.53;;;23.40;56.00;;;;;;4998366;28;20041;-64
2023/09/30 04:20:48;;;;;;;4.18;2.40;;;23.40;56.00;;;;;;5002066;28;20030;-64
2023/09/30 04:23:15;;;;;;;5.47;3.20;;;23.40;56.00;;;;;;4997701;28;20042;-63
2023/09/30 04:25:42;;;;;;;4.47;2.60;;;23.40;56.00;;;;;;4996037;28;20026;-64
2023/09/30 04:28:09;;;;;;;4.78;2.90;;;23.40;56.00;;;;;;4999705;28;20049;-60
2023/09/30 04:30:35;;;;;;;4.22;2.55;;;23.40;56.00;;;;;;4998962;28;20034;-61
2023/09/30 04:33:04;;;;;;;4.95;3.00;;;23.40;56.00;;;;;;4999709;28;20026;-62
2023/09/30 04:35:30;;;;;;;4.72;2.92;;;23.40;56.00;;;;;;5002234;28;20129;-61
2023/09/30 04:37:57;;;;;;;4.38;2.67;;;23.40;56.00;;;;;;4999925;28;20405;-64
2023/09/30 04:40:22;;;;;;;4.93;2.88;;;23.40;56.50;;;;;;4997330;28;20030;-64
2023/09/30 04:42:49;;;;;;;4.95;2.47;;;23.40;56.00;;;;;;4998535;28;20053;-65
2023/09/30 04:45:24;;;;;;;4.43;2.83;;;23.30;56.00;;;;;;4998934;28;20497;-65
2023/09/30 04:47:50;;;;;;;4.03;2.58;;;23.30;56.00;;;;;;4999984;28;20109;-65
2023/09/30 04:50:16;;;;;;;5.57;3.22;;;23.30;56.00;;;;;;4998712;28;20023;-63
2023/09/30 04:52:42;;;;;;;4.47;2.65;;;23.30;56.10;;;;;;4998764;28;20030;-64
2023/09/30 04:55:08;;;;;;;4.80;2.65;;;23.30;56.10;;;;;;4997345;28;20462;-64
2023/09/30 04:57:34;;;;;;;4.97;2.95;;;23.30;56.10;;;;;;4998462;28;20030;-63
2023/09/30 05:00:00;;;;;;;5.10;2.80;;;23.30;56.10;;;;;;4998055;28;20049;-63
2023/09/30 05:02:28;;;;;;;4.22;2.50;;;23.30;56.10;;;;;;4998399;28;20026;-64
2023/09/30 05:04:54;;;;;;;4.20;2.50;;;23.30;56.10;;;;;;4998473;28;20118;-63
2023/09/30 05:07:24;;;;;;;4.30;2.65;;;23.30;56.10;;;;;;5000051;28;20113;-62
2023/09/30 05:09:49;;;;;;;4.15;2.45;;;23.30;56.10;;;;;;4998617;28;20117;-62
2023/09/30 05:12:16;;;;;;;4.00;2.60;;;23.30;56.10;;;;;;4999605;28;20038;-63
2023/09/30 05:14:42;;;;;;;4.97;2.88;;;23.30;56.10;;;;;;5000064;28;20026;-62
2023/09/30 05:17:08;;;;;;;4.55;2.50;;;23.30;56.10;;;;;;5000143;28;20041;-61
2023/09/30 05:19:33;;;;;;;4.90;2.95;;;23.30;56.10;;;;;;4998584;28;20427;-63
2023/09/30 05:22:00;;;;;;;5.05;2.78;;;23.30;56.10;;;;;;4998770;28;20038;-62
2023/09/30 05:24:27;;;;;;;4.40;2.40;;;23.20;56.10;;;;;;4999064;28;20126;-62
2023/09/30 05:26:53;;;;;;;4.88;2.90;;;23.20;56.10;;;;;;4999111;28;20045;-61
2023/09/30 05:29:18;;;;;;;4.80;2.78;;;23.20;56.10;;;;;;5002224;28;20490;-62
2023/09/30 05:31:44;;;;;;;4.75;2.90;;;23.20;56.10;;;;;;5002965;28;20471;-62
2023/09/30 05:34:10;;;;;;;4.63;2.70;;;23.20;56.10;;;;;;5004264;28;20029;-61
2023/09/30 05:36:36;;;;;;;5.30;2.90;;;23.20;56.10;;;;;;5004602;28;20437;-67
2023/09/30 05:39:03;;;;;;;4.80;2.97;;;23.20;56.10;;;;;;5003054;28;20032;-67
2023/09/30 05:41:29;;;;;;;5.30;2.95;;;23.20;56.10;;;;;;5000701;28;20034;-67
2023/09/30 05:43:55;;;;;;;4.38;2.50;;;23.20;56.10;;;;;;5004296;28;20033;-67
2023/09/30 05:46:21;;;;;;;4.93;2.92;;;23.20;56.10;;;;;;5003282;28;20390;-67
2023/09/30 05:48:47;;;;;;;4.22;2.65;;;23.20;56.10;;;;;;5001966;28;20061;-64
2023/09/30 05:51:15;;;;;;;4.35;2.50;;;23.20;56.10;;;;;;5002894;28;20036;-65
2023/09/30 05:53:41;;;;;;;4.97;2.60;;;23.20;56.10;;;;;;5002725;28;20109;-64
2023/09/30 05:56:08;;;;;;;4.80;2.90;;;23.20;56.10;;;;;;5001306;28;20096;-65
2023/09/30 05:58:33;;;;;;;5.78;2.85;;;23.20;56.10;;;;;;5001980;28;20512;-64
2023/09/30 06:01:00;;;;;;;5.10;2.83;;;23.20;56.10;;;;;;5001312;28;20039;-64
2023/09/30 06:03:29;;;;;;;4.70;2.60;;;23.20;56.10;;;;;;5000944;28;20026;-64
2023/09/30 06:05:55;;;;;;;5.22;2.83;;;23.20;56.10;;;;;;5000251;28;20493;-65
2023/09/30 06:08:21;;;;;;;4.82;2.72;;;23.20;56.10;;;;;;5002782;28;20040;-65
2023/09/30 06:10:47;;;;;;;5.25;2.90;;;23.20;56.10;;;;;;5000201;28;20482;-64
2023/09/30 06:13:15;;;;;;;5.07;2.70;;;23.20;56.10;;;;;;5001204;28;20026;-65
2023/09/30 06:15:42;;;;;;;4.82;2.50;;;23.20;56.10;;;;;;5001666;28;20033;-65
2023/09/30 06:18:09;;;;;;;5.57;2.72;;;23.20;56.10;;;;;;5001779;28;20049;-65
2023/09/30 06:20:35;;;;;;;3.88;2.28;;;23.20;56.70;;;;;;5001672;28;20475;-65
2023/09/30 06:23:01;;;;;;;4.68;2.72;;;23.20;56.10;;;;;;5001510;28;20037;-65
2023/09/30 06:25:27;;;;;;;4.63;2.75;;;23.20;56.10;;;;;;5001080;28;20429;-65
2023/09/30 06:27:56;;;;;;;3.85;2.40;;;23.10;56.10;;;;;;5001913;28;20054;-65
2023/09/30 06:30:29;;;;;;;4.85;2.65;;;23.10;56.10;;;;;;4999531;28;20454;-64
2023/09/30 06:32:56;;;;;;;4.03;2.45;;;23.10;56.10;;;;;;5000278;28;20052;-65
2023/09/30 06:35:21;;;;;;;4.70;2.58;;;23.10;56.10;;;;;;5001260;28;20030;-65
2023/09/30 06:37:47;;;;;;;4.57;2.50;;;23.10;56.10;;;;;;5000938;28;20055;-65
2023/09/30 06:40:13;;;;;;;4.00;2.65;;;23.10;56.10;;;;;;5000975;28;20101;-64
2023/09/30 06:42:39;;;;;;;3.72;2.47;;;23.10;56.10;;;;;;4999531;28;20045;-64
2023/09/30 06:45:06;;;;;;;5.28;3.00;;;23.10;56.10;;;;;;5000793;28;20378;-64
2023/09/30 06:47:36;;;;;;;4.63;2.50;;;23.10;56.10;;;;;;5003256;28;20038;-64
2023/09/30 06:50:12;;;;;;;4.63;2.65;;;23.10;56.10;;;;;;5001973;28;20022;-64
2023/09/30 06:52:42;;;;;;;4.38;2.55;;;23.10;56.10;;;;;;5000555;28;20141;-65
2023/09/30 06:55:08;;;;;;;4.97;2.60;;;23.10;56.10;;;;;;5002834;28;20052;-64
2023/09/30 06:57:37;;;;;;;5.10;2.63;;;23.10;56.10;;;;;;4998261;28;20514;-65
2023/09/30 07:00:13;;;;;;;4.72;2.63;;;23.10;56.10;;;;;;4998991;28;20026;-64
2023/09/30 07:02:40;;;;;;;5.45;2.78;;;23.10;56.10;;;;;;5000452;28;20576;-64
2023/09/30 07:05:09;;;;;;;4.32;2.50;;;23.10;56.20;;;;;;5000093;28;20435;-65
2023/09/30 07:07:35;;;;;;;;;;;23.10;56.10;;;;;;5000962;28;20531;-65
2023/09/30 07:10:01;;;;;;;4.30;2.50;;;23.10;56.10;;;;;;4999393;28;19993;-65
2023/09/30 07:12:27;;;;;;;3.83;2.30;;;23.00;56.10;;;;;;4997494;28;20122;-65
2023/09/30 07:14:53;;;;;;;4.18;2.47;;;23.00;56.10;;;;;;5001608;28;20084;-64
2023/09/30 07:17:18;;;;;;;4.35;2.70;;;23.10;56.20;;;;;;5000994;28;20030;-64
2023/09/30 07:19:44;;;;;;;4.13;2.60;;;23.10;56.20;;;;;;5001228;28;20129;-64
2023/09/30 07:22:10;;;;;;;4.75;2.58;;;23.00;56.10;;;;;;4999544;28;20395;-65
2023/09/30 07:24:35;;;;;;;5.07;2.65;;;23.00;56.20;;;;;;4999457;28;20073;-64
2023/09/30 07:27:02;;;;;;;4.90;2.60;;;23.00;56.10;;;;;;4999453;28;20022;-65
2023/09/30 07:29:27;;;;;;;4.38;2.38;;;23.00;56.10;;;;;;5000933;28;20046;-67
2023/09/30 07:31:53;;;;;;;4.80;2.42;;;23.00;56.10;;;;;;4999327;28;20048;-67
2023/09/30 07:34:18;;;;;;;3.78;2.30;;;23.00;56.20;;;;;;5001875;28;20034;-67
2023/09/30 07:36:44;;;;;;;4.18;2.33;;;23.00;56.20;;;;;;4998563;28;20960;-67
2023/09/30 07:39:10;;;;;;;4.38;2.40;;;23.10;56.20;;;;;;5000429;28;20034;-67
2023/09/30 07:41:38;;;;;;;4.22;2.50;;;23.00;56.20;;;;;;4999345;28;20050;-66
2023/09/30 07:44:05;;;;;;;4.20;2.50;;;23.00;56.20;;;;;;4998389;28;20088;-66
2023/09/30 07:46:30;;;;;;;3.83;2.30;;;23.00;56.20;;;;;;4999095;28;20105;-67
2023/09/30 07:48:58;;;;;;;3.67;2.15;;;23.00;56.20;;;;;;4998796;28;20098;-67
2023/09/30 07:51:24;;;;;;;3.60;2.28;;;23.00;56.20;;;;;;4998577;28;20105;-67
2023/09/30 07:53:50;;;;;;;4.22;2.30;;;23.00;56.20;;;;;;4998637;28;20116;-67
2023/09/30 07:56:16;;;;;;;4.55;2.63;;;23.00;56.20;;;;;;4995971;28;20054;-67
2023/09/30 07:58:41;;;;;;;3.95;2.38;;;23.00;56.20;;;;;;4999367;28;20971;-67
2023/09/30 08:01:08;;;;;;;4.15;2.35;;;23.00;56.20;;;;;;4999112;28;20971;-67
2023/09/30 08:03:34;;;;;;;4.30;2.35;;;23.00;56.20;;;;;;4999267;28;20109;-67
2023/09/30 08:06:00;;;;;;;4.40;2.40;;;23.00;56.20;;;;;;5000118;28;20500;-67
2023/09/30 08:08:26;;;;;;;4.57;2.50;;;23.00;56.20;;;;;;4998203;28;20022;-67
2023/09/30 08:10:55;;;;;;;4.90;2.67;;;23.00;56.20;;;;;;4998108;28;20022;-67
2023/09/30 08:13:24;;;;;;;4.72;2.50;;;23.00;56.20;;;;;;4999708;28;20072;-67
2023/09/30 08:15:51;;;;;;;5.05;2.88;;;23.00;56.20;;;;;;4998308;28;20076;-67
2023/09/30 08:18:16;;;;;;;4.25;2.80;;;23.00;56.20;;;;;;5000034;28;20947;-67
2023/09/30 08:20:42;;;;;;;5.55;2.38;;;23.00;56.20;;;;;;4998053;28;20116;-67
2023/09/30 08:23:08;;;;;;;4.07;2.40;;;23.00;56.70;;;;;;4998082;28;20074;-67
2023/09/30 08:25:33;;;;;;;4.80;2.50;;;23.00;56.20;;;;;;5000623;28;20374;-67
2023/09/30 08:28:00;;;;;;;4.43;2.42;;;23.00;56.20;;;;;;4997695;28;20033;-67
2023/09/30 08:30:26;;;;;;;4.15;2.35;;;23.00;56.20;;;;;;4999942;28;20026;-67
2023/09/30 08:32:51;;;;;;;3.90;2.28;;;23.00;56.20;;;;;;4999642;28;20026;-67
2023/09/30 08:35:17;;;;;;;3.92;2.22;;;23.00;56.20;;;;;;4998770;28;20127;-67
2023/09/30 08:37:43;;;;;;;4.43;2.28;;;23.00;56.20;;;;;;4997886;28;20054;-64
2023/09/30 08:40:09;;;;;;;4.43;2.35;;;23.00;56.20;;;;;;4999167;28;20109;-64
2023/09/30 08:42:38;;;;;;;4.03;2.42;;;23.00;56.20;;;;;;4999657;28;20466;-64
2023/09/30 08:45:06;;;;;;;4.28;2.47;;;23.00;56.20;;;;;;4997783;28;20120;-64
2023/09/30 08:47:34;;;;;;;3.53;2.00;;;23.00;56.10;;;;;;5000908;28;20030;-64
2023/09/30 08:50:05;;;;;;;3.75;2.20;;;23.00;56.10;;;;;;4997723;28;20073;-64
2023/09/30 08:52:33;;;;;;;4.18;2.28;;;23.00;56.10;;;;;;4997285;28;20040;-64
2023/09/30 08:54:59;;;;;;;4.28;2.67;;;23.00;56.10;;;;;;4999131;28;20025;-64
2023/09/30 08:57:26;;;;;;;4.18;2.20;;;22.90;56.00;;;;;;4997698;28;20045;-65
2023/09/30 08:59:53;;;;;;;3.95;2.08;;;23.00;56.10;;;;;;4999088;28;20022;-64
2023/09/30 09:02:19;;;;;;;3.83;2.10;;;23.00;56.00;;;;;;4998460;28;20437;-64
2023/09/30 09:04:46;;;;;;;4.05;2.15;;;23.00;56.10;;;;;;4998900;28;20061;-64
2023/09/30 09:07:12;;;;;;;3.50;1.80;;;23.00;56.00;;;;;;4998967;28;20037;-62
2023/09/30 09:09:38;;;;;;;3.72;2.10;;;23.00;56.00;;;;;;4997871;28;20035;-61
2023/09/30 09:12:04;;;;;;;4.07;2.05;;;22.90;55.90;;;;;;4998489;28;20033;-63
2023/09/30 09:14:40;;;;;;;3.80;2.20;;;23.00;56.00;;;;;;4997984;28;20038;-61
2023/09/30 09:17:07;;;;;;;3.95;2.40;;;22.90;56.00;;;;;;5000416;28;20026;-61
2023/09/30 09:19:34;;;;;;;4.15;2.28;;;22.90;55.90;;;;;;4997992;28;20029;-67
2023/09/30 09:22:01;;;;;;;3.80;2.20;;;23.00;56.00;;;;;;4998352;28;20029;-67
2023/09/30 09:24:35;;;;;;;4.20;2.10;;;22.90;55.90;;;;;;5000856;28;20030;-67
2023/09/30 09:27:12;;;;;;;3.22;1.95;;;22.90;55.90;;;;;;4997630;28;20515;-67
2023/09/30 09:29:39;;;;;;;4.43;2.15;;;22.90;55.90;;;;;;4998822;28;20026;-68
2023/09/30 09:32:16;;;;;;;3.95;2.17;;;22.90;55.90;;;;;;4999242;28;20382;-67
2023/09/30 09:34:44;;;;;;;3.78;2.28;;;22.90;55.90;;;;;;4999760;28;20025;-67
2023/09/30 09:37:20;;;;;;;4.50;2.28;;;22.90;55.80;;;;;;4996725;28;20030;-67
2023/09/30 09:40:07;;;;;;;4.05;2.30;;;22.90;55.80;;;;;;4999305;28;20053;-66
2023/09/30 09:42:34;;;;;;;3.35;1.95;;;22.90;55.80;;;;;;4997612;28;20046;-67
2023/09/30 09:45:05;;;;;;;4.18;2.20;;;22.90;55.80;;;;;;4998271;28;20489;-67
2023/09/30 09:47:32;;;;;;;3.65;2.00;;;22.90;55.80;;;;;;4998398;28;20022;-67
2023/09/30 09:49:59;;;;;;;3.80;2.00;;;22.90;55.80;;;;;;4997395;28;20494;-65
2023/09/30 09:52:26;;;;;;;3.55;2.10;;;22.90;55.80;;;;;;4996417;28;20085;-66
2023/09/30 09:54:52;;;;;;;3.63;2.10;;;22.90;55.80;;;;;;4998699;28;20034;-66
2023/09/30 09:57:21;;;;;;;3.58;2.20;;;22.90;55.80;;;;;;4996140;28;20053;-66
2023/09/30 09:59:47;;;;;;;4.15;2.40;;;22.90;55.80;;;;;;4996934;28;20034;-64
2023/09/30 10:02:17;;;;;;;3.33;1.80;;;23.00;55.90;;;;;;4999277;28;20370;-65
2023/09/30 10:04:44;;;;;;;3.15;1.80;;;22.90;55.80;;;;;;5000204;28;20038;-67
2023/09/30 10:07:35;;;;;;;3.65;2.28;;;22.90;55.80;;;;;;4997808;28;20033;-65
2023/09/30 10:10:04;;;;;;;3.95;2.15;;;22.90;55.80;;;;;;4996838;28;20045;-65
2023/09/30 10:12:37;;;;;;;3.85;2.15;;;23.00;55.80;;;;;;4996577;28;20027;-65
2023/09/30 10:15:25;;;;;;;3.40;1.98;;;22.90;55.80;;;;;;4998319;28;20035;-66
2023/09/30 10:18:03;;;;;;;3.97;2.33;;;22.90;55.70;;;;;;5000798;28;20079;-67
2023/09/30 10:20:30;;;;;;;4.38;2.25;;;22.90;55.70;;;;;;5000930;28;20074;-67
2023/09/30 10:23:19;;;;;;;4.05;2.17;;;22.90;55.70;;;;;;5000620;28;20328;-67
2023/09/30 10:25:47;;;;;;;3.83;2.05;;;22.90;55.70;;;;;;4999958;28;20037;-67
2023/09/30 10:28:46;;;;;;;3.85;2.00;;;22.90;56.20;;;;;;5000132;28;20787;-67
2023/09/30 10:31:19;;;;;;;4.00;1.95;;;22.90;55.70;;;;;;5000614;28;20103;-67
2023/09/30 10:34:00;;;;;;;3.42;2.00;;;22.90;55.60;;;;;;5002180;28;20026;-67
2023/09/30 10:36:34;;;;;;;4.05;1.92;;;22.90;55.60;;;;;;5000923;28;20335;-67
2023/09/30 10:39:02;;;;;;;3.88;2.22;;;22.90;55.60;;;;;;5002089;28;20482;-65
2023/09/30 10:41:40;;;;;;;3.80;2.10;;;23.00;55.60;;;;;;4998971;28;20390;-67
2023/09/30 10:44:25;;;;;;;4.30;2.40;;;22.90;55.50;;;;;;5000051;28;20030;-67
2023/09/30 10:47:20;;;;;;;3.28;1.95;;;22.90;55.50;;;;;;5000919;28;20027;-67
2023/09/30 10:49:46;;;;;;;4.10;2.30;;;23.00;55.50;;;;;;4992481;28;20130;-67
2023/09/30 10:52:24;;;;;;;3.67;2.22;;;23.00;55.50;;;;;;4999854;28;20031;-67
2023/09/30 10:54:50;;;;;;;3.95;2.38;;;22.90;55.50;;;;;;5001643;28;20438;-67
2023/09/30 10:57:30;;;;;;;4.10;2.17;;;23.00;55.50;;;;;;5002472;28;20121;-67
2023/09/30 11:00:11;;;;;;;3.83;2.17;;;23.00;55.60;;;;;;4998009;28;20034;-65
2023/09/30 11:02:51;;;;;;;3.65;1.98;;;23.00;55.50;;;;;;5000327;28;20037;-65
2023/09/30 11:05:18;;;;;;;3.60;2.03;;;23.00;55.50;;;;;;5001961;28;20029;-65
2023/09/30 11:07:47;;;;;;;3.78;2.00;;;22.90;55.50;;;;;;5001451;28;20442;-65
2023/09/30 11:10:16;;;;;;;4.63;2.50;;;23.00;55.80;;;;;;5000917;28;20453;-65
2023/09/30 11:12:54;;;;;;;3.33;1.85;;;23.00;55.60;;;;;;5000490;28;20422;-65
2023/09/30 11:15:19;;;;;;;3.55;2.08;;;23.00;55.50;;;;;;4997444;28;20654;-65
2023/09/30 11:17:45;;;;;;;4.03;2.30;;;22.90;55.50;;;;;;5000921;28;20109;-65
2023/09/30 11:20:11;;;;;;;3.42;1.88;;;22.90;55.50;;;;;;5002124;28;20026;-65
2023/09/30 11:22:39;;;;;;;3.70;2.10;;;22.90;55.50;;;;;;4999816;28;20505;-65
2023/09/30 11:25:05;;;;;;;3.70;2.08;;;22.90;55.40;;;;;;5000785;28;20022;-65
2023/09/30 11:27:31;;;;;;;4.80;2.30;;;22.90;55.40;;;;;;5000274;28;20026;-65
2023/09/30 11:29:58;;;;;;;3.50;2.30;;;22.90;55.40;;;;;;4998402;28;20422;-64
2023/09/30 11:32:28;;;;;;;3.28;1.90;;;23.00;55.50;;;;;;4999792;28;20026;-64
2023/09/30 11:34:54;;;;;;;4.00;2.08;;;23.00;55.50;;;;;;5001568;28;20066;-64
2023/09/30 11:37:21;;;;;;;3.90;2.33;;;22.90;55.40;;;;;;4999660;28;20502;-64
2023/09/30 11:39:47;;;;;;;4.43;2.33;;;22.90;55.40;;;;;;5002231;28;20021;-61
2023/09/30 11:42:17;;;;;;;3.80;2.10;;;23.00;56.00;;;;;;5001018;28;20405;-61
2023/09/30 11:44:49;;;;;;;3.97;2.40;;;23.00;55.40;;;;;;4999889;28;20541;-60
2023/09/30 11:47:16;;;;;;;4.22;2.50;;;23.00;55.40;;;;;;4999338;28;20053;-61
2023/09/30 11:49:53;;;;;;;2.75;1.67;;;23.00;55.40;;;;;;5000319;28;20022;-62
2023/09/30 11:52:26;;;;;;;3.80;2.00;;;23.00;55.50;;;;;;5000402;28;20088;-60
2023/09/30 11:54:52;;;;;;;3.90;2.40;;;23.00;55.50;;;;;;4998671;28;20485;-60
2023/09/30 11:57:18;;;;;;;3.70;2.20;;;22.90;55.40;;;;;;5001422;28;20037;-61
2023/09/30 11:59:45;;;;;;;3.33;2.13;;;23.00;55.50;;;;;;4999009;28;20038;-61
2023/09/30 12:02:11;;;;;;;3.20;1.80;;;22.90;55.40;;;;;;4999667;28;20026;-61
2023/09/30 12:04:38;;;;;;;4.55;2.22;;;23.00;55.50;;;;;;5000046;28;20038;-60
2023/09/30 12:07:06;;;;;;;3.58;1.90;;;22.90;55.50;;;;;;4999949;28;20030;-63
2023/09/30 12:09:35;;;;;;;4.45;2.50;;;23.00;55.50;;;;;;4997997;28;20469;-64
2023/09/30 12:12:00;;;;;;;3.33;2.08;;;23.00;55.50;;;;;;4999896;28;20527;-64
2023/09/30 12:14:26;;;;;;;3.92;2.15;;;23.00;56.00;;;;;;4996835;28;20030;-63
2023/09/30 12:16:52;;;;;;;3.35;2.00;;;23.00;55.50;;;;;;4997460;28;20033;-64
2023/09/30 12:19:18;;;;;;;3.25;2.20;;;22.90;55.40;;;;;;4999836;28;20936;-64
2023/09/30 12:21:46;;;;;;;4.65;2.25;;;23.00;55.50;;;;;;5000224;28;20053;-64
2023/09/30 12:24:16;;;;;;;3.70;2.20;;;23.00;55.50;;;;;;5001427;28;20029;-64
2023/09/30 12:26:48;;;;;;;3.45;2.03;;;22.90;55.40;;;;;;4998600;28;20036;-64
2023/09/30 12:29:18;;;;;;;3.90;2.05;;;23.00;55.50;;;;;;4999081;28;20041;-65
2023/09/30 12:31:51;;;;;;;5.10;2.60;;;23.00;55.50;;;;;;4998682;28;20494;-64
2023/09/30 12:34:17;;;;;;;4.15;2.40;;;23.00;55.50;;;;;;4997716;28;20073;-64
2023/09/30 12:36:43;;;;;;;3.45;2.22;;;23.00;55.40;;;;;;4997434;28;20033;-64
2023/09/30 12:39:10;;;;;;;4.30;2.28;;;23.00;55.40;;;;;;5001496;28;20505;-64
2023/09/30 12:41:40;;;;;;;3.88;2.30;;;23.00;55.40;;;;;;5001105;28;20040;-64
2023/09/30 12:44:06;;;;;;;4.40;2.42;;;23.00;55.40;;;;;;4997817;28;20786;-65
2023/09/30 12:46:34;;;;;;;4.75;2.47;;;23.00;55.40;;;;;;5014621;28;20460;-65
2023/09/30 12:49:02;;;;;;;4.25;2.35;;;23.00;55.40;;;;;;4999626;28;20030;-67
2023/09/30 12:51:27;;;;;;;3.75;2.25;;;23.00;55.30;;;;;;5000637;28;20034;-68